createdAt,value
2024-02-18T00:00:00.905Z,58.55
2024-02-18T00:02:30.007Z,58.49
2024-02-18T00:04:58.913Z,58.40
2024-02-18T00:07:27.423Z,58.66
2024-02-18T00:09:57.048Z,58.41
2024-02-18T00:12:26.111Z,58.62
2024-02-18T00:14:55.906Z,58.50
2024-02-18T00:17:24.535Z,58.66
2024-02-18T00:19:52.667Z,58.55
2024-02-18T00:22:21.034Z,58.50
2024-02-18T00:24:49.755Z,58.44
2024-02-18T00:27:18.139Z,58.62
2024-02-18T00:29:46.158Z,58.35
2024-02-18T00:32:14.613Z,58.53
2024-02-18T00:34:42.698Z,58.76
2024-02-18T00:37:11.280Z,58.75
2024-02-18T00:39:39.335Z,58.64
2024-02-18T00:42:10.112Z,58.60
2024-02-18T00:44:38.443Z,58.57
2024-02-18T00:47:07.623Z,58.30
2024-02-18T00:49:36.149Z,58.66
2024-02-18T00:52:05.001Z,58.28
2024-02-18T00:54:33.140Z,58.33
2024-02-18T00:57:01.870Z,58.47
2024-02-18T00:59:29.821Z,58.54
2024-02-18T01:01:58.285Z,58.28
2024-02-18T01:04:26.419Z,58.54
2024-02-18T01:06:54.808Z,58.41
2024-02-18T01:09:22.914Z,58.27
2024-02-18T01:11:52.531Z,58.22
2024-02-18T01:14:21.033Z,58.25
2024-02-18T01:16:51.106Z,58.52
2024-02-18T01:19:19.205Z,58.28
2024-02-18T01:21:47.730Z,58.13
2024-02-18T01:24:15.775Z,58.17
2024-02-18T01:26:44.164Z,58.16
2024-02-18T01:29:12.138Z,58.14
2024-02-18T01:31:40.543Z,58.26
2024-02-18T01:34:08.661Z,58.22
2024-02-18T01:36:37.575Z,58.29
2024-02-18T01:39:05.660Z,58.18
2024-02-18T01:41:34.492Z,58.03
2024-02-18T01:44:02.494Z,58.09
2024-02-18T01:46:31.218Z,58.15
2024-02-18T01:48:59.375Z,57.94
2024-02-18T01:51:28.000Z,58.07
2024-02-18T01:53:56.057Z,58.17
2024-02-18T01:56:24.407Z,58.19
2024-02-18T01:58:52.456Z,58.29
2024-02-18T02:01:21.329Z,57.97
2024-02-18T02:03:49.467Z,58.12
2024-02-18T02:06:18.031Z,58.17
2024-02-18T02:08:46.246Z,58.34
2024-02-18T02:11:14.978Z,58.14
2024-02-18T02:13:43.034Z,58.30
2024-02-18T02:16:11.510Z,58.30
2024-02-18T02:18:39.719Z,57.96
2024-02-18T02:21:09.151Z,57.82
2024-02-18T02:23:37.224Z,58.10
2024-02-18T02:26:06.079Z,58.14
2024-02-18T02:28:35.784Z,58.01
2024-02-18T02:31:04.185Z,58.21
2024-02-18T02:33:32.320Z,58.07
2024-02-18T02:36:01.172Z,57.82
2024-02-18T02:38:29.497Z,57.89
2024-02-18T02:40:57.886Z,58.00
2024-02-18T02:43:26.044Z,57.77
2024-02-18T02:45:54.623Z,58.06
2024-02-18T02:48:22.725Z,58.11
2024-02-18T02:50:51.182Z,58.01
2024-02-18T02:53:19.224Z,57.86
2024-02-18T02:55:47.547Z,57.72
2024-02-18T02:58:15.532Z,57.85
2024-02-18T03:00:43.962Z,57.83
2024-02-18T03:03:12.017Z,57.94
2024-02-18T03:05:40.699Z,57.85
2024-02-18T03:08:10.433Z,57.75
2024-02-18T03:10:38.776Z,57.79
2024-02-18T03:13:06.924Z,57.70
2024-02-18T03:15:39.038Z,57.93
2024-02-18T03:18:07.151Z,57.86
2024-02-18T03:20:36.382Z,57.65
2024-02-18T03:23:04.634Z,57.93
2024-02-18T03:25:33.122Z,57.92
2024-02-18T03:28:01.661Z,57.71
2024-02-18T03:30:30.213Z,57.92
2024-02-18T03:32:58.248Z,57.70
2024-02-18T03:35:29.350Z,57.61
2024-02-18T03:37:57.795Z,57.87
2024-02-18T03:40:26.225Z,57.76
2024-02-18T03:42:54.362Z,57.64
2024-02-18T03:45:22.893Z,57.83
2024-02-18T03:47:51.033Z,57.79
2024-02-18T03:50:19.454Z,57.85
2024-02-18T03:52:47.726Z,57.91
2024-02-18T03:55:16.467Z,57.58
2024-02-18T03:57:44.609Z,57.68
2024-02-18T04:00:13.396Z,57.50
2024-02-18T04:02:42.758Z,57.55
2024-02-18T04:05:11.900Z,57.72
2024-02-18T04:07:40.102Z,57.89
2024-02-18T04:10:08.828Z,57.58
2024-02-18T04:12:38.040Z,57.67
2024-02-18T04:15:06.782Z,57.69
2024-02-18T04:17:35.177Z,57.50
2024-02-18T04:20:04.669Z,57.56
2024-02-18T04:22:33.182Z,57.85
2024-02-18T04:25:02.478Z,57.79
2024-02-18T04:27:30.739Z,57.55
2024-02-18T04:29:59.179Z,57.40
2024-02-18T04:32:27.322Z,57.66
2024-02-18T04:34:56.002Z,57.64
2024-02-18T04:37:24.218Z,57.66
2024-02-18T04:39:53.864Z,57.64
2024-02-18T04:42:21.983Z,57.71
2024-02-18T04:44:50.418Z,57.90
2024-02-18T04:47:18.498Z,57.60
2024-02-18T04:49:47.030Z,57.69
2024-02-18T04:52:15.143Z,57.54
2024-02-18T04:54:43.502Z,57.65
2024-02-18T04:57:11.627Z,57.44
2024-02-18T04:59:40.051Z,57.80
2024-02-18T05:02:09.125Z,57.44
2024-02-18T05:04:37.539Z,57.31
2024-02-18T05:07:05.975Z,57.45
2024-02-18T05:09:34.522Z,57.58
2024-02-18T05:12:02.564Z,57.25
2024-02-18T05:14:31.377Z,57.22
2024-02-18T05:17:00.973Z,57.24
2024-02-18T05:19:30.315Z,57.24
2024-02-18T05:21:58.505Z,57.05
2024-02-18T05:24:27.093Z,56.99
2024-02-18T05:26:55.282Z,56.59
2024-02-18T05:29:24.004Z,56.05
2024-02-18T05:31:52.065Z,56.20
2024-02-18T05:34:20.614Z,55.82
2024-02-18T05:36:48.937Z,55.66
2024-02-18T05:39:17.808Z,55.38
2024-02-18T05:41:45.779Z,54.68
2024-02-18T05:44:14.231Z,54.54
2024-02-18T05:46:42.257Z,54.37
2024-02-18T05:49:10.867Z,54.21
2024-02-18T05:51:39.002Z,54.05
2024-02-18T05:54:07.520Z,53.81
2024-02-18T05:56:35.572Z,53.22
2024-02-18T05:59:05.137Z,52.91
2024-02-18T06:01:33.421Z,53.27
2024-02-18T06:04:02.117Z,53.06
2024-02-18T06:06:31.336Z,53.16
2024-02-18T06:08:59.815Z,52.97
2024-02-18T06:11:28.023Z,53.04
2024-02-18T06:13:56.404Z,52.77
2024-02-18T06:16:24.420Z,53.40
2024-02-18T06:18:53.138Z,53.82
2024-02-18T06:21:24.360Z,53.61
2024-02-18T06:23:57.711Z,53.78
2024-02-18T06:26:25.965Z,53.86
2024-02-18T06:28:54.463Z,53.91
2024-02-18T06:31:23.375Z,53.69
2024-02-18T06:33:51.999Z,53.77
2024-02-18T06:36:20.456Z,53.90
2024-02-18T06:38:52.459Z,54.04
2024-02-18T06:41:22.104Z,54.07
2024-02-18T06:43:50.498Z,54.32
2024-02-18T06:46:18.710Z,54.40
2024-02-18T06:48:49.187Z,54.73
2024-02-18T06:51:17.475Z,54.29
2024-02-18T06:53:46.042Z,54.57
2024-02-18T06:56:14.244Z,54.47
2024-02-18T06:58:42.623Z,54.68
2024-02-18T07:01:11.013Z,54.36
2024-02-18T07:03:39.475Z,54.71
2024-02-18T07:06:07.599Z,54.41
2024-02-18T07:08:36.072Z,54.49
2024-02-18T07:11:04.637Z,54.49
2024-02-18T07:13:33.126Z,54.90
2024-02-18T07:16:01.253Z,54.95
2024-02-18T07:18:30.020Z,54.94
2024-02-18T07:20:58.174Z,54.76
2024-02-18T07:23:26.557Z,55.07
2024-02-18T07:25:55.166Z,54.72
2024-02-18T07:28:23.679Z,54.79
2024-02-18T07:30:51.930Z,54.87
2024-02-18T07:33:20.580Z,54.62
2024-02-18T07:35:49.098Z,54.27
2024-02-18T07:38:17.543Z,54.25
2024-02-18T07:40:45.732Z,54.20
2024-02-18T07:43:16.527Z,53.76
2024-02-18T07:45:44.806Z,54.10
2024-02-18T07:48:14.459Z,54.04
2024-02-18T07:50:42.642Z,53.78
2024-02-18T07:53:11.299Z,54.12
2024-02-18T07:55:39.418Z,54.03
2024-02-18T07:58:07.889Z,54.16
2024-02-18T08:00:36.407Z,54.11
2024-02-18T08:03:05.066Z,54.07
2024-02-18T08:05:33.121Z,54.09
2024-02-18T08:08:01.790Z,54.40
2024-02-18T08:10:29.768Z,54.14
2024-02-18T08:12:58.121Z,54.28
2024-02-18T08:15:26.874Z,54.41
2024-02-18T08:17:55.377Z,54.16
2024-02-18T08:20:23.497Z,54.49
2024-02-18T08:22:51.856Z,54.49
2024-02-18T08:25:19.830Z,54.15
2024-02-18T08:27:48.317Z,54.35
2024-02-18T08:30:16.329Z,54.61
2024-02-18T08:32:46.856Z,54.50
2024-02-18T08:35:16.311Z,54.30
2024-02-18T08:37:46.329Z,54.50
2024-02-18T08:40:14.453Z,54.21
2024-02-18T08:42:42.898Z,54.66
2024-02-18T08:45:11.116Z,54.30
2024-02-18T08:47:39.644Z,54.47
2024-02-18T08:50:08.207Z,54.39
2024-02-18T08:52:36.718Z,54.76
2024-02-18T08:55:04.925Z,54.58
2024-02-18T08:57:33.350Z,54.69
2024-02-18T09:00:03.723Z,54.54
2024-02-18T09:02:32.197Z,54.72
2024-02-18T09:05:03.270Z,54.57
2024-02-18T09:07:32.710Z,54.41
2024-02-18T09:10:00.927Z,54.68
2024-02-18T09:12:29.452Z,54.67
2024-02-18T09:14:57.549Z,54.35
2024-02-18T09:17:26.147Z,54.61
2024-02-18T09:19:54.863Z,54.23
2024-02-18T09:22:23.466Z,54.58
2024-02-18T09:24:51.741Z,54.43
2024-02-18T09:27:20.425Z,54.32
2024-02-18T09:29:51.889Z,54.09
2024-02-18T09:32:22.243Z,54.31
2024-02-18T09:34:50.682Z,54.01
2024-02-18T09:37:19.725Z,54.26
2024-02-18T09:39:47.894Z,54.22
2024-02-18T09:42:16.742Z,54.20
2024-02-18T09:44:46.391Z,54.24
2024-02-18T09:47:15.107Z,54.12
2024-02-18T09:49:44.430Z,54.17
2024-02-18T09:52:13.242Z,53.84
2024-02-18T09:54:41.678Z,54.23
2024-02-18T09:57:10.267Z,54.16
2024-02-18T09:59:38.483Z,53.76
2024-02-18T10:02:07.460Z,54.15
2024-02-18T10:04:35.988Z,53.81
2024-02-18T10:07:05.236Z,54.31
2024-02-18T10:09:33.566Z,54.24
2024-02-18T10:12:02.171Z,54.18
2024-02-18T10:14:30.345Z,54.10
2024-02-18T10:16:58.858Z,54.02
2024-02-18T10:19:27.188Z,54.15
2024-02-18T10:21:55.792Z,54.09
2024-02-18T10:24:27.022Z,54.04
2024-02-18T10:26:56.043Z,54.00
2024-02-18T10:29:25.483Z,53.94
2024-02-18T10:31:54.076Z,54.18
2024-02-18T10:34:22.371Z,54.11
2024-02-18T10:36:51.263Z,53.67
2024-02-18T10:39:19.441Z,53.95
2024-02-18T10:41:49.587Z,53.45
2024-02-18T10:44:17.938Z,53.14
2024-02-18T10:46:49.777Z,52.99
2024-02-18T10:49:22.847Z,52.60
2024-02-18T10:51:53.361Z,52.40
2024-02-18T10:54:40.144Z,51.81
2024-02-18T10:57:08.633Z,51.52
2024-02-18T10:59:54.828Z,51.60
2024-02-18T11:02:27.172Z,51.32
2024-02-18T11:04:55.505Z,51.17
2024-02-18T11:07:24.119Z,50.89
2024-02-18T11:09:52.330Z,50.70
2024-02-18T11:12:20.855Z,50.50
2024-02-18T11:14:49.961Z,50.24
2024-02-18T11:17:18.705Z,50.67
2024-02-18T11:19:46.880Z,50.72
2024-02-18T11:22:17.223Z,50.29
2024-02-18T11:24:49.239Z,50.58
2024-02-18T11:27:18.024Z,50.29
2024-02-18T11:29:49.422Z,50.57
2024-02-18T11:32:18.669Z,50.84
2024-02-18T11:34:50.355Z,50.92
2024-02-18T11:37:35.082Z,50.68
2024-02-18T11:40:21.546Z,50.97
2024-02-18T11:42:50.729Z,51.00
2024-02-18T11:45:21.333Z,51.30
2024-02-18T11:47:53.579Z,51.15
2024-02-18T11:50:22.151Z,51.38
2024-02-18T11:52:51.654Z,51.54
2024-02-18T11:55:19.976Z,51.65
2024-02-18T11:57:48.934Z,51.80
2024-02-18T12:00:20.835Z,51.77
2024-02-18T12:02:52.255Z,51.68
2024-02-18T12:05:24.628Z,52.00
2024-02-18T12:07:56.471Z,51.85
2024-02-18T12:10:25.008Z,51.80
2024-02-18T12:12:53.707Z,52.04
2024-02-18T12:15:23.891Z,51.85
2024-02-18T12:17:55.384Z,51.83
2024-02-18T12:20:24.812Z,51.86
2024-02-18T12:22:55.566Z,51.98
2024-02-18T12:25:24.032Z,52.11
2024-02-18T12:27:52.679Z,52.15
2024-02-18T12:30:23.739Z,52.14
2024-02-18T12:32:57.668Z,52.22
2024-02-18T12:35:27.993Z,52.47
2024-02-18T12:37:56.476Z,52.59
2024-02-18T12:40:25.225Z,52.68
2024-02-18T12:43:14.554Z,52.64
2024-02-18T12:45:47.321Z,52.83
2024-02-18T12:48:21.556Z,52.81
2024-02-18T12:51:09.670Z,52.73
2024-02-18T12:53:41.843Z,52.79
2024-02-18T12:56:10.752Z,52.91
2024-02-18T12:58:39.954Z,53.10
2024-02-18T13:01:10.869Z,53.08
2024-02-18T13:03:40.958Z,52.84
2024-02-18T13:06:11.812Z,53.09
2024-02-18T13:08:40.665Z,53.08
2024-02-18T13:11:10.045Z,53.08
2024-02-18T13:13:38.541Z,52.86
2024-02-18T13:16:06.811Z,52.89
2024-02-18T13:18:35.571Z,53.15
2024-02-18T13:21:03.921Z,53.16
2024-02-18T13:23:32.472Z,53.37
2024-02-18T13:26:00.527Z,53.51
2024-02-18T13:28:29.126Z,53.58
2024-02-18T13:30:57.372Z,53.45
2024-02-18T13:33:26.110Z,53.47
2024-02-18T13:35:54.294Z,53.46
2024-02-18T13:38:22.932Z,53.68
2024-02-18T13:40:51.111Z,53.44
2024-02-18T13:43:19.645Z,53.73
2024-02-18T13:45:47.848Z,53.41
2024-02-18T13:48:16.468Z,53.70
2024-02-18T13:50:44.778Z,53.61
2024-02-18T13:53:13.329Z,53.62
2024-02-18T13:55:41.472Z,53.95
2024-02-18T13:58:10.147Z,53.91
2024-02-18T14:00:38.925Z,54.03
2024-02-18T14:03:07.651Z,54.03
2024-02-18T14:05:36.035Z,53.81
2024-02-18T14:08:04.844Z,54.01
2024-02-18T14:10:32.922Z,53.86
2024-02-18T14:13:01.608Z,53.97
2024-02-18T14:15:31.472Z,54.23
2024-02-18T14:18:00.161Z,53.95
2024-02-18T14:20:28.820Z,54.38
2024-02-18T14:22:57.262Z,54.28
2024-02-18T14:25:25.352Z,54.12
2024-02-18T14:27:53.753Z,54.20
2024-02-18T14:30:23.031Z,54.18
2024-02-18T14:32:51.497Z,54.46
2024-02-18T14:35:19.609Z,54.59
2024-02-18T14:37:48.044Z,54.56
2024-02-18T14:40:16.235Z,54.49
2024-02-18T14:42:44.921Z,54.91
2024-02-18T14:45:15.894Z,54.64
2024-02-18T14:47:44.742Z,54.93
2024-02-18T14:50:16.199Z,54.72
2024-02-18T14:52:44.687Z,54.83
2024-02-18T14:55:12.919Z,54.75
2024-02-18T14:57:41.426Z,55.08
2024-02-18T15:00:18.200Z,54.87
2024-02-18T15:02:48.596Z,55.24
2024-02-18T15:05:16.982Z,55.27
2024-02-18T15:07:45.613Z,55.21
2024-02-18T15:10:13.670Z,55.25
2024-02-18T15:12:42.310Z,55.33
2024-02-18T15:15:10.523Z,55.30
2024-02-18T15:17:41.984Z,55.42
2024-02-18T15:20:10.297Z,55.57
2024-02-18T15:22:38.941Z,55.25
2024-02-18T15:25:07.758Z,55.65
2024-02-18T15:27:36.485Z,55.54
2024-02-18T15:30:05.474Z,55.59
2024-02-18T15:32:33.865Z,55.65
2024-02-18T15:35:02.254Z,55.81
2024-02-18T15:37:30.704Z,55.84
2024-02-18T15:39:58.802Z,55.62
2024-02-18T15:42:27.520Z,55.70
2024-02-18T15:44:55.597Z,55.61
2024-02-18T15:47:23.993Z,55.89
2024-02-18T15:49:52.167Z,55.97
2024-02-18T15:52:20.612Z,56.00
2024-02-18T15:54:48.695Z,55.84
2024-02-18T15:57:17.066Z,55.72
2024-02-18T15:59:45.279Z,56.17
2024-02-18T16:02:13.602Z,55.89
2024-02-18T16:04:43.410Z,55.74
2024-02-18T16:07:12.691Z,55.58
2024-02-18T16:09:48.425Z,55.66
2024-02-18T16:12:17.064Z,55.36
2024-02-18T16:14:45.140Z,55.31
2024-02-18T16:17:13.561Z,54.97
2024-02-18T16:19:41.885Z,54.36
2024-02-18T16:22:10.757Z,54.59
2024-02-18T16:24:40.353Z,53.99
2024-02-18T16:27:10.099Z,53.85
2024-02-18T16:29:38.319Z,53.62
2024-02-18T16:32:06.929Z,53.45
2024-02-18T16:34:36.309Z,53.49
2024-02-18T16:37:05.133Z,53.53
2024-02-18T16:39:36.818Z,53.75
2024-02-18T16:42:05.777Z,53.50
2024-02-18T16:44:33.857Z,53.35
2024-02-18T16:47:04.800Z,53.57
2024-02-18T16:49:33.263Z,53.95
2024-02-18T16:52:02.072Z,53.51
2024-02-18T16:54:30.320Z,53.32
2024-02-18T16:56:58.936Z,53.87
2024-02-18T16:59:27.091Z,53.94
2024-02-18T17:01:56.013Z,53.87
2024-02-18T17:04:24.346Z,54.08
2024-02-18T17:06:53.065Z,54.32
2024-02-18T17:09:21.204Z,54.55
2024-02-18T17:11:49.665Z,54.55
2024-02-18T17:14:17.790Z,54.89
2024-02-18T17:16:46.254Z,55.26
2024-02-18T17:19:14.516Z,55.12
2024-02-18T17:21:43.953Z,55.58
2024-02-18T17:24:12.276Z,55.57
2024-02-18T17:26:40.905Z,55.67
2024-02-18T17:29:09.042Z,55.66
2024-02-18T17:31:38.500Z,56.08
2024-02-18T17:34:10.079Z,55.91
2024-02-18T17:36:38.725Z,56.33
2024-02-18T17:39:09.440Z,56.14
2024-02-18T17:41:38.266Z,56.22
2024-02-18T17:44:06.366Z,56.17
2024-02-18T17:46:34.956Z,56.27
2024-02-18T17:49:03.270Z,56.15
2024-02-18T17:51:34.932Z,56.34
2024-02-18T17:54:03.649Z,56.15
2024-02-18T17:56:34.817Z,56.49
2024-02-18T17:59:08.551Z,56.54
2024-02-18T18:01:37.341Z,56.01
2024-02-18T18:04:05.811Z,56.40
2024-02-18T18:06:36.102Z,56.19
2024-02-18T18:09:04.276Z,56.57
2024-02-18T18:11:32.896Z,56.45
2024-02-18T18:14:01.558Z,56.57
2024-02-18T18:16:29.992Z,56.50
2024-02-18T18:18:58.153Z,56.55
2024-02-18T18:21:27.482Z,56.46
2024-02-18T18:23:58.575Z,56.74
2024-02-18T18:26:27.490Z,57.04
2024-02-18T18:28:55.529Z,56.99
2024-02-18T18:31:24.189Z,57.02
2024-02-18T18:33:52.536Z,56.92
2024-02-18T18:36:20.948Z,57.18
2024-02-18T18:38:49.054Z,57.17
2024-02-18T18:41:17.745Z,57.15
2024-02-18T18:43:45.758Z,57.26
2024-02-18T18:46:14.274Z,56.90
2024-02-18T18:48:42.566Z,57.44
2024-02-18T18:51:11.022Z,57.45
2024-02-18T18:53:39.669Z,57.53
2024-02-18T18:56:10.591Z,57.21
2024-02-18T18:58:40.294Z,57.03
2024-02-18T19:01:08.798Z,57.27
2024-02-18T19:03:37.262Z,57.16
2024-02-18T19:06:06.050Z,57.52
2024-02-18T19:08:34.416Z,57.57
2024-02-18T19:11:03.402Z,57.42
2024-02-18T19:13:42.133Z,56.95
2024-02-18T19:16:18.033Z,57.44
2024-02-18T19:18:48.951Z,57.21
2024-02-18T19:21:17.880Z,57.10
2024-02-18T19:23:46.060Z,56.96
2024-02-18T19:26:14.617Z,57.03
2024-02-18T19:28:43.100Z,57.03
2024-02-18T19:31:15.724Z,56.92
2024-02-18T19:33:47.158Z,57.29
2024-02-18T19:36:16.994Z,57.25
2024-02-18T19:38:45.727Z,57.58
2024-02-18T19:41:14.429Z,57.53
2024-02-18T21:07:04.662Z,57.91
2024-02-18T21:09:33.479Z,57.76
2024-02-18T21:12:02.333Z,58.01
2024-02-18T21:14:30.640Z,57.92
2024-02-18T21:17:00.652Z,58.06
2024-02-18T21:19:29.254Z,57.72
2024-02-18T21:21:58.066Z,57.77
2024-02-18T21:24:26.923Z,57.77
2024-02-18T21:26:55.624Z,57.82
2024-02-18T21:29:24.189Z,58.03
2024-02-18T21:31:52.861Z,57.78
2024-02-18T21:34:21.521Z,57.77
2024-02-18T21:36:50.440Z,57.78
2024-02-18T21:39:21.935Z,57.95
2024-02-18T21:41:54.895Z,57.78
2024-02-18T21:44:23.381Z,57.75
2024-02-18T21:46:52.295Z,57.83
2024-02-18T21:49:20.814Z,57.76
2024-02-18T21:51:50.051Z,57.79
2024-02-18T21:54:18.660Z,58.01
2024-02-18T21:56:47.510Z,57.58
2024-02-18T21:59:15.818Z,57.93
2024-02-18T22:01:45.349Z,57.58
2024-02-18T22:04:13.960Z,57.60
2024-02-18T22:06:54.530Z,57.75
2024-02-18T22:09:31.043Z,57.72
2024-02-18T22:11:59.696Z,57.59
2024-02-18T22:14:28.071Z,57.60
2024-02-18T22:16:56.715Z,57.66
2024-02-18T22:19:25.297Z,57.99
2024-02-18T22:21:54.187Z,57.79
2024-02-18T22:24:24.287Z,57.76
2024-02-18T22:26:53.485Z,57.71
2024-02-18T22:29:21.793Z,57.57
2024-02-18T22:31:50.995Z,57.77
2024-02-18T22:34:19.611Z,57.68
2024-02-18T22:36:48.735Z,58.00
2024-02-18T22:39:17.110Z,57.67
2024-02-18T22:41:45.923Z,57.85
2024-02-18T22:44:14.408Z,57.87
2024-02-18T22:46:44.583Z,57.66
2024-02-18T22:49:12.956Z,58.10
2024-02-18T22:51:45.483Z,57.98
2024-02-18T22:54:13.877Z,57.74
2024-02-18T22:56:42.612Z,57.84
2024-02-18T22:59:10.976Z,57.76
2024-02-18T23:01:39.954Z,57.84
2024-02-18T23:04:08.374Z,57.79
2024-02-18T23:06:37.276Z,57.64
2024-02-18T23:09:07.105Z,57.63
2024-02-18T23:11:36.293Z,57.60
2024-02-18T23:14:04.853Z,57.69
2024-02-18T23:16:33.548Z,57.61
2024-02-18T23:19:01.917Z,57.85
2024-02-18T23:21:30.655Z,58.02
2024-02-18T23:24:00.603Z,57.99
2024-02-18T23:26:29.328Z,57.89
2024-02-18T23:28:57.638Z,57.72
2024-02-18T23:31:26.413Z,57.63
2024-02-18T23:33:54.907Z,57.79
2024-02-18T23:36:23.629Z,57.60
2024-02-18T23:38:51.978Z,57.77
2024-02-18T23:41:20.795Z,57.79
2024-02-18T23:43:49.162Z,57.89
2024-02-18T23:46:17.875Z,57.67
2024-02-18T23:48:46.277Z,57.65
2024-02-18T23:51:15.033Z,57.67
2024-02-18T23:53:43.303Z,57.93
2024-02-18T23:56:12.331Z,57.79
2024-02-18T23:58:40.665Z,57.70
